sensor_id;sensor_type;location;lat;lon;timestamp;P1;durP1;ratioP1;P2;durP2;ratioP2
73452;SDS011;61687;56.232;43.854;2023-12-29T00:02:01;8.85;;;4.38;;
73452;SDS011;61687;56.232;43.854;2023-12-29T00:04:28;10.07;;;5.82;;
73452;SDS011;61687;56.232;43.854;2023-12-29T00:06:54;11.07;;;5.90;;
73452;SDS011;61687;56.232;43.854;2023-12-29T00:09:21;10.13;;;5.97;;
73452;SDS011;61687;56.232;43.854;2023-12-29T00:11:48;8.57;;;4.47;;
73452;SDS011;61687;56.232;43.854;2023-12-29T00:14:15;11.50;;;6.10;;
73452;SDS011;61687;56.232;43.854;2023-12-29T00:16:41;9.75;;;4.95;;
73452;SDS011;61687;56.232;43.854;2023-12-29T00:19:11;9.70;;;4.75;;
73452;SDS011;61687;56.232;43.854;2023-12-29T00:21:37;7.97;;;4.67;;
73452;SDS011;61687;56.232;43.854;2023-12-29T00:24:04;8.57;;;5.28;;
73452;SDS011;61687;56.232;43.854;2023-12-29T00:26:31;8.57;;;4.47;;
73452;SDS011;61687;56.232;43.854;2023-12-29T00:28:57;11.00;;;5.40;;
73452;SDS011;61687;56.232;43.854;2023-12-29T00:31:24;9.02;;;5.07;;
73452;SDS011;61687;56.232;43.854;2023-12-29T00:33:51;7.93;;;4.80;;
73452;SDS011;61687;56.232;43.854;2023-12-29T00:36:20;7.85;;;4.32;;
73452;SDS011;61687;56.232;43.854;2023-12-29T00:38:48;10.20;;;5.47;;
73452;SDS011;61687;56.232;43.854;2023-12-29T00:41:14;9.20;;;4.90;;
73452;SDS011;61687;56.232;43.854;2023-12-29T00:43:41;7.28;;;5.25;;
73452;SDS011;61687;56.232;43.854;2023-12-29T00:46:08;9.43;;;4.90;;
73452;SDS011;61687;56.232;43.854;2023-12-29T00:48:34;7.50;;;4.43;;
73452;SDS011;61687;56.232;43.854;2023-12-29T00:51:02;10.25;;;5.45;;
73452;SDS011;61687;56.232;43.854;2023-12-29T00:53:30;13.18;;;4.68;;
73452;SDS011;61687;56.232;43.854;2023-12-29T00:55:59;10.18;;;5.47;;
73452;SDS011;61687;56.232;43.854;2023-12-29T00:58:25;9.30;;;5.07;;
73452;SDS011;61687;56.232;43.854;2023-12-29T01:00:53;9.40;;;4.55;;
73452;SDS011;61687;56.232;43.854;2023-12-29T01:03:20;6.25;;;4.32;;
73452;SDS011;61687;56.232;43.854;2023-12-29T01:05:47;9.65;;;5.18;;
73452;SDS011;61687;56.232;43.854;2023-12-29T01:08:13;9.93;;;5.47;;
73452;SDS011;61687;56.232;43.854;2023-12-29T01:10:40;9.73;;;5.17;;
73452;SDS011;61687;56.232;43.854;2023-12-29T01:13:07;9.38;;;5.40;;
73452;SDS011;61687;56.232;43.854;2023-12-29T01:15:34;10.90;;;5.35;;
73452;SDS011;61687;56.232;43.854;2023-12-29T01:18:01;9.93;;;5.00;;
73452;SDS011;61687;56.232;43.854;2023-12-29T01:20:26;9.48;;;5.60;;
73452;SDS011;61687;56.232;43.854;2023-12-29T01:22:52;8.47;;;4.37;;
73452;SDS011;61687;56.232;43.854;2023-12-29T01:25:18;8.65;;;5.03;;
73452;SDS011;61687;56.232;43.854;2023-12-29T01:27:44;9.63;;;5.63;;
73452;SDS011;61687;56.232;43.854;2023-12-29T01:30:10;7.88;;;5.03;;
73452;SDS011;61687;56.232;43.854;2023-12-29T01:32:37;9.57;;;5.18;;
73452;SDS011;61687;56.232;43.854;2023-12-29T01:35:03;8.77;;;5.03;;
73452;SDS011;61687;56.232;43.854;2023-12-29T01:37:31;9.88;;;5.50;;
73452;SDS011;61687;56.232;43.854;2023-12-29T01:39:57;10.45;;;5.15;;
73452;SDS011;61687;56.232;43.854;2023-12-29T01:42:24;10.03;;;5.20;;
73452;SDS011;61687;56.232;43.854;2023-12-29T01:44:50;8.77;;;4.63;;
73452;SDS011;61687;56.232;43.854;2023-12-29T01:47:20;10.05;;;5.85;;
73452;SDS011;61687;56.232;43.854;2023-12-29T01:49:47;8.65;;;5.13;;
73452;SDS011;61687;56.232;43.854;2023-12-29T01:52:18;9.63;;;5.38;;
73452;SDS011;61687;56.232;43.854;2023-12-29T01:54:46;11.47;;;5.40;;
73452;SDS011;61687;56.232;43.854;2023-12-29T01:57:14;9.90;;;5.65;;
73452;SDS011;61687;56.232;43.854;2023-12-29T01:59:41;9.18;;;5.28;;
73452;SDS011;61687;56.232;43.854;2023-12-29T02:02:08;8.77;;;5.35;;
73452;SDS011;61687;56.232;43.854;2023-12-29T02:04:35;10.90;;;6.22;;
73452;SDS011;61687;56.232;43.854;2023-12-29T02:07:04;8.47;;;4.80;;
73452;SDS011;61687;56.232;43.854;2023-12-29T02:09:30;9.38;;;4.53;;
73452;SDS011;61687;56.232;43.854;2023-12-29T02:11:59;8.23;;;4.47;;
73452;SDS011;61687;56.232;43.854;2023-12-29T02:14:25;10.00;;;5.57;;
73452;SDS011;61687;56.232;43.854;2023-12-29T02:17:01;10.65;;;5.68;;
73452;SDS011;61687;56.232;43.854;2023-12-29T02:19:55;9.97;;;5.80;;
73452;SDS011;61687;56.232;43.854;2023-12-29T02:22:21;8.65;;;5.30;;
73452;SDS011;61687;56.232;43.854;2023-12-29T02:24:48;11.57;;;6.15;;
73452;SDS011;61687;56.232;43.854;2023-12-29T02:27:21;11.13;;;5.60;;
73452;SDS011;61687;56.232;43.854;2023-12-29T02:32:46;10.63;;;5.40;;
73452;SDS011;61687;56.232;43.854;2023-12-29T02:35:14;8.82;;;5.40;;
73452;SDS011;61687;56.232;43.854;2023-12-29T02:37:44;8.43;;;4.38;;
73452;SDS011;61687;56.232;43.854;2023-12-29T02:40:10;9.63;;;5.28;;
73452;SDS011;61687;56.232;43.854;2023-12-29T02:42:37;11.90;;;6.18;;
73452;SDS011;61687;56.232;43.854;2023-12-29T02:45:03;13.77;;;6.67;;
73452;SDS011;61687;56.232;43.854;2023-12-29T02:47:32;9.27;;;5.53;;
73452;SDS011;61687;56.232;43.854;2023-12-29T02:49:58;12.88;;;6.20;;
73452;SDS011;61687;56.232;43.854;2023-12-29T02:52:24;11.65;;;6.47;;
73452;SDS011;61687;56.232;43.854;2023-12-29T02:54:50;11.97;;;5.97;;
73452;SDS011;61687;56.232;43.854;2023-12-29T02:57:17;11.95;;;6.05;;
73452;SDS011;61687;56.232;43.854;2023-12-29T02:59:43;11.23;;;6.50;;
73452;SDS011;61687;56.232;43.854;2023-12-29T03:02:09;12.02;;;5.82;;
73452;SDS011;61687;56.232;43.854;2023-12-29T03:04:35;12.63;;;5.33;;
73452;SDS011;61687;56.232;43.854;2023-12-29T03:07:01;12.60;;;6.20;;
73452;SDS011;61687;56.232;43.854;2023-12-29T03:09:26;12.27;;;6.05;;
73452;SDS011;61687;56.232;43.854;2023-12-29T03:11:52;12.63;;;6.38;;
73452;SDS011;61687;56.232;43.854;2023-12-29T03:14:18;10.85;;;5.38;;
73452;SDS011;61687;56.232;43.854;2023-12-29T03:16:44;13.27;;;6.40;;
73452;SDS011;61687;56.232;43.854;2023-12-29T03:19:11;11.07;;;5.17;;
73452;SDS011;61687;56.232;43.854;2023-12-29T03:21:37;11.00;;;5.63;;
73452;SDS011;61687;56.232;43.854;2023-12-29T03:24:02;10.32;;;4.82;;
73452;SDS011;61687;56.232;43.854;2023-12-29T03:26:28;12.70;;;5.80;;
73452;SDS011;61687;56.232;43.854;2023-12-29T03:28:54;9.70;;;4.95;;
73452;SDS011;61687;56.232;43.854;2023-12-29T03:31:20;9.65;;;5.40;;
73452;SDS011;61687;56.232;43.854;2023-12-29T03:33:46;10.63;;;5.63;;
73452;SDS011;61687;56.232;43.854;2023-12-29T03:36:12;13.27;;;6.05;;
73452;SDS011;61687;56.232;43.854;2023-12-29T03:38:40;11.98;;;6.20;;
73452;SDS011;61687;56.232;43.854;2023-12-29T03:41:07;14.25;;;5.72;;
73452;SDS011;61687;56.232;43.854;2023-12-29T03:43:33;11.93;;;5.82;;
73452;SDS011;61687;56.232;43.854;2023-12-29T03:45:59;12.03;;;5.93;;
73452;SDS011;61687;56.232;43.854;2023-12-29T03:48:25;13.82;;;6.88;;
73452;SDS011;61687;56.232;43.854;2023-12-29T03:50:51;12.35;;;6.25;;
73452;SDS011;61687;56.232;43.854;2023-12-29T03:53:17;12.45;;;6.68;;
73452;SDS011;61687;56.232;43.854;2023-12-29T03:55:44;10.93;;;5.70;;
73452;SDS011;61687;56.232;43.854;2023-12-29T03:58:11;12.55;;;6.65;;
73452;SDS011;61687;56.232;43.854;2023-12-29T04:00:37;13.57;;;6.65;;
73452;SDS011;61687;56.232;43.854;2023-12-29T04:03:07;14.30;;;7.57;;
73452;SDS011;61687;56.232;43.854;2023-12-29T04:05:33;11.25;;;6.28;;
73452;SDS011;61687;56.232;43.854;2023-12-29T04:07:59;11.33;;;5.83;;
73452;SDS011;61687;56.232;43.854;2023-12-29T04:10:25;15.02;;;6.68;;
73452;SDS011;61687;56.232;43.854;2023-12-29T04:12:51;10.10;;;5.63;;
73452;SDS011;61687;56.232;43.854;2023-12-29T04:15:17;10.97;;;5.90;;
73452;SDS011;61687;56.232;43.854;2023-12-29T04:17:43;13.80;;;7.30;;
73452;SDS011;61687;56.232;43.854;2023-12-29T04:20:09;11.38;;;5.60;;
73452;SDS011;61687;56.232;43.854;2023-12-29T04:22:35;11.23;;;6.40;;
73452;SDS011;61687;56.232;43.854;2023-12-29T04:25:01;11.93;;;5.25;;
73452;SDS011;61687;56.232;43.854;2023-12-29T04:27:29;10.40;;;5.50;;
73452;SDS011;61687;56.232;43.854;2023-12-29T04:29:54;11.50;;;5.85;;
73452;SDS011;61687;56.232;43.854;2023-12-29T04:32:22;13.32;;;6.78;;
73452;SDS011;61687;56.232;43.854;2023-12-29T04:34:48;12.38;;;6.38;;
73452;SDS011;61687;56.232;43.854;2023-12-29T04:37:15;14.05;;;6.95;;
73452;SDS011;61687;56.232;43.854;2023-12-29T04:39:41;14.25;;;5.90;;
73452;SDS011;61687;56.232;43.854;2023-12-29T04:42:07;11.25;;;5.95;;
73452;SDS011;61687;56.232;43.854;2023-12-29T04:44:33;11.30;;;6.22;;
73452;SDS011;61687;56.232;43.854;2023-12-29T04:46:59;13.50;;;6.47;;
73452;SDS011;61687;56.232;43.854;2023-12-29T04:49:25;14.13;;;7.07;;
73452;SDS011;61687;56.232;43.854;2023-12-29T04:51:51;12.02;;;6.47;;
73452;SDS011;61687;56.232;43.854;2023-12-29T04:54:17;12.77;;;5.70;;
73452;SDS011;61687;56.232;43.854;2023-12-29T04:56:43;10.98;;;6.22;;
73452;SDS011;61687;56.232;43.854;2023-12-29T04:59:09;11.75;;;5.72;;
73452;SDS011;61687;56.232;43.854;2023-12-29T05:01:35;11.57;;;6.10;;
73452;SDS011;61687;56.232;43.854;2023-12-29T05:04:01;13.43;;;6.03;;
73452;SDS011;61687;56.232;43.854;2023-12-29T05:06:27;13.73;;;6.10;;
73452;SDS011;61687;56.232;43.854;2023-12-29T05:08:53;15.85;;;6.20;;
73452;SDS011;61687;56.232;43.854;2023-12-29T05:11:19;13.30;;;6.73;;
73452;SDS011;61687;56.232;43.854;2023-12-29T05:13:45;12.75;;;6.97;;
73452;SDS011;61687;56.232;43.854;2023-12-29T05:16:11;11.48;;;6.95;;
73452;SDS011;61687;56.232;43.854;2023-12-29T05:18:37;13.37;;;6.57;;
73452;SDS011;61687;56.232;43.854;2023-12-29T05:21:03;12.85;;;7.03;;
73452;SDS011;61687;56.232;43.854;2023-12-29T05:23:29;12.38;;;5.75;;
73452;SDS011;61687;56.232;43.854;2023-12-29T05:25:55;12.82;;;7.38;;
73452;SDS011;61687;56.232;43.854;2023-12-29T05:28:21;13.57;;;5.73;;
73452;SDS011;61687;56.232;43.854;2023-12-29T05:30:47;12.15;;;5.93;;
73452;SDS011;61687;56.232;43.854;2023-12-29T05:33:12;10.73;;;5.63;;
73452;SDS011;61687;56.232;43.854;2023-12-29T05:35:38;14.63;;;7.65;;
73452;SDS011;61687;56.232;43.854;2023-12-29T05:38:04;13.88;;;7.28;;
73452;SDS011;61687;56.232;43.854;2023-12-29T05:40:30;13.40;;;6.45;;
73452;SDS011;61687;56.232;43.854;2023-12-29T05:42:56;14.07;;;5.73;;
73452;SDS011;61687;56.232;43.854;2023-12-29T05:45:22;14.30;;;7.32;;
73452;SDS011;61687;56.232;43.854;2023-12-29T05:47:48;12.80;;;5.95;;
73452;SDS011;61687;56.232;43.854;2023-12-29T05:50:14;13.43;;;6.10;;
73452;SDS011;61687;56.232;43.854;2023-12-29T05:52:40;13.45;;;6.82;;
73452;SDS011;61687;56.232;43.854;2023-12-29T05:55:06;14.70;;;7.13;;
73452;SDS011;61687;56.232;43.854;2023-12-29T05:57:32;14.90;;;7.30;;
73452;SDS011;61687;56.232;43.854;2023-12-29T05:59:58;13.50;;;6.38;;
73452;SDS011;61687;56.232;43.854;2023-12-29T06:02:24;12.52;;;6.90;;
73452;SDS011;61687;56.232;43.854;2023-12-29T06:04:50;11.55;;;5.78;;
73452;SDS011;61687;56.232;43.854;2023-12-29T06:07:15;12.30;;;6.07;;
73452;SDS011;61687;56.232;43.854;2023-12-29T06:09:41;14.27;;;7.05;;
73452;SDS011;61687;56.232;43.854;2023-12-29T06:12:07;13.57;;;6.63;;
73452;SDS011;61687;56.232;43.854;2023-12-29T06:14:33;13.53;;;6.50;;
73452;SDS011;61687;56.232;43.854;2023-12-29T06:17:02;13.52;;;6.28;;
73452;SDS011;61687;56.232;43.854;2023-12-29T06:19:28;10.75;;;6.05;;
73452;SDS011;61687;56.232;43.854;2023-12-29T06:21:54;10.02;;;5.45;;
73452;SDS011;61687;56.232;43.854;2023-12-29T06:24:20;17.87;;;6.33;;
73452;SDS011;61687;56.232;43.854;2023-12-29T06:26:45;15.07;;;6.60;;
73452;SDS011;61687;56.232;43.854;2023-12-29T06:29:13;13.13;;;6.43;;
73452;SDS011;61687;56.232;43.854;2023-12-29T06:31:41;12.50;;;6.00;;
73452;SDS011;61687;56.232;43.854;2023-12-29T06:34:07;11.98;;;6.72;;
73452;SDS011;61687;56.232;43.854;2023-12-29T06:36:33;13.43;;;6.15;;
73452;SDS011;61687;56.232;43.854;2023-12-29T06:38:59;13.85;;;6.75;;
73452;SDS011;61687;56.232;43.854;2023-12-29T06:41:25;14.57;;;6.77;;
73452;SDS011;61687;56.232;43.854;2023-12-29T06:43:51;13.65;;;6.53;;
73452;SDS011;61687;56.232;43.854;2023-12-29T06:46:17;12.20;;;6.45;;
73452;SDS011;61687;56.232;43.854;2023-12-29T06:48:43;14.30;;;6.53;;
73452;SDS011;61687;56.232;43.854;2023-12-29T06:51:09;11.87;;;6.40;;
73452;SDS011;61687;56.232;43.854;2023-12-29T06:53:36;13.20;;;7.05;;
73452;SDS011;61687;56.232;43.854;2023-12-29T06:56:03;11.00;;;5.80;;
73452;SDS011;61687;56.232;43.854;2023-12-29T06:58:30;10.55;;;6.00;;
73452;SDS011;61687;56.232;43.854;2023-12-29T07:00:56;9.70;;;5.10;;
73452;SDS011;61687;56.232;43.854;2023-12-29T07:03:22;10.88;;;5.40;;
73452;SDS011;61687;56.232;43.854;2023-12-29T07:05:48;14.45;;;6.43;;
73452;SDS011;61687;56.232;43.854;2023-12-29T07:08:13;13.13;;;6.07;;
73452;SDS011;61687;56.232;43.854;2023-12-29T07:10:40;9.65;;;4.95;;
73452;SDS011;61687;56.232;43.854;2023-12-29T07:13:06;11.30;;;5.45;;
73452;SDS011;61687;56.232;43.854;2023-12-29T07:15:32;11.77;;;5.43;;
73452;SDS011;61687;56.232;43.854;2023-12-29T07:17:58;10.13;;;5.27;;
73452;SDS011;61687;56.232;43.854;2023-12-29T07:20:24;8.57;;;4.50;;
73452;SDS011;61687;56.232;43.854;2023-12-29T07:22:49;10.68;;;5.50;;
73452;SDS011;61687;56.232;43.854;2023-12-29T07:25:15;11.33;;;5.57;;
73452;SDS011;61687;56.232;43.854;2023-12-29T07:27:41;11.88;;;4.72;;
73452;SDS011;61687;56.232;43.854;2023-12-29T07:30:07;10.73;;;5.03;;
73452;SDS011;61687;56.232;43.854;2023-12-29T07:32:34;11.13;;;5.80;;
73452;SDS011;61687;56.232;43.854;2023-12-29T07:35:00;10.98;;;5.40;;
73452;SDS011;61687;56.232;43.854;2023-12-29T07:37:26;10.68;;;5.55;;
73452;SDS011;61687;56.232;43.854;2023-12-29T07:39:52;10.00;;;5.55;;
73452;SDS011;61687;56.232;43.854;2023-12-29T07:42:17;11.57;;;4.90;;
73452;SDS011;61687;56.232;43.854;2023-12-29T07:44:43;10.38;;;5.07;;
73452;SDS011;61687;56.232;43.854;2023-12-29T07:47:09;9.90;;;6.13;;
73452;SDS011;61687;56.232;43.854;2023-12-29T07:49:37;11.23;;;5.95;;
73452;SDS011;61687;56.232;43.854;2023-12-29T07:52:03;13.00;;;7.00;;
73452;SDS011;61687;56.232;43.854;2023-12-29T07:54:29;12.73;;;6.40;;
73452;SDS011;61687;56.232;43.854;2023-12-29T07:56:55;12.93;;;5.90;;
73452;SDS011;61687;56.232;43.854;2023-12-29T07:59:21;11.88;;;6.75;;
73452;SDS011;61687;56.232;43.854;2023-12-29T08:01:47;14.67;;;6.50;;
73452;SDS011;61687;56.232;43.854;2023-12-29T08:04:13;14.45;;;6.93;;
73452;SDS011;61687;56.232;43.854;2023-12-29T08:06:39;12.95;;;6.97;;
73452;SDS011;61687;56.232;43.854;2023-12-29T08:09:05;13.67;;;7.20;;
73452;SDS011;61687;56.232;43.854;2023-12-29T08:11:32;13.68;;;6.93;;
73452;SDS011;61687;56.232;43.854;2023-12-29T08:13:59;12.73;;;7.43;;
73452;SDS011;61687;56.232;43.854;2023-12-29T08:16:24;9.75;;;5.75;;
73452;SDS011;61687;56.232;43.854;2023-12-29T08:18:52;12.60;;;6.30;;
73452;SDS011;61687;56.232;43.854;2023-12-29T08:21:18;11.02;;;5.82;;
73452;SDS011;61687;56.232;43.854;2023-12-29T08:23:46;10.75;;;5.68;;
73452;SDS011;61687;56.232;43.854;2023-12-29T08:26:12;14.00;;;6.78;;
73452;SDS011;61687;56.232;43.854;2023-12-29T08:28:38;11.03;;;6.20;;
73452;SDS011;61687;56.232;43.854;2023-12-29T08:31:04;8.93;;;5.10;;
73452;SDS011;61687;56.232;43.854;2023-12-29T08:33:31;12.15;;;5.75;;
73452;SDS011;61687;56.232;43.854;2023-12-29T08:35:57;12.40;;;5.97;;
73452;SDS011;61687;56.232;43.854;2023-12-29T08:38:26;10.40;;;5.60;;
73452;SDS011;61687;56.232;43.854;2023-12-29T08:40:52;11.98;;;6.05;;
73452;SDS011;61687;56.232;43.854;2023-12-29T08:43:18;12.93;;;5.45;;
73452;SDS011;61687;56.232;43.854;2023-12-29T08:45:47;11.38;;;6.00;;
73452;SDS011;61687;56.232;43.854;2023-12-29T08:48:13;11.68;;;6.10;;
73452;SDS011;61687;56.232;43.854;2023-12-29T08:50:39;10.47;;;5.80;;
73452;SDS011;61687;56.232;43.854;2023-12-29T08:53:05;10.05;;;5.28;;
73452;SDS011;61687;56.232;43.854;2023-12-29T08:55:31;9.48;;;4.93;;
73452;SDS011;61687;56.232;43.854;2023-12-29T08:57:57;7.53;;;4.10;;
73452;SDS011;61687;56.232;43.854;2023-12-29T09:00:24;11.87;;;4.83;;
73452;SDS011;61687;56.232;43.854;2023-12-29T09:02:50;9.85;;;5.53;;
73452;SDS011;61687;56.232;43.854;2023-12-29T09:05:16;9.90;;;4.72;;
73452;SDS011;61687;56.232;43.854;2023-12-29T09:07:42;9.38;;;5.38;;
73452;SDS011;61687;56.232;43.854;2023-12-29T09:10:08;10.80;;;5.50;;
73452;SDS011;61687;56.232;43.854;2023-12-29T09:12:37;10.85;;;5.82;;
73452;SDS011;61687;56.232;43.854;2023-12-29T09:15:04;9.18;;;4.63;;
73452;SDS011;61687;56.232;43.854;2023-12-29T09:17:32;8.60;;;4.00;;
73452;SDS011;61687;56.232;43.854;2023-12-29T09:19:58;7.72;;;4.85;;
73452;SDS011;61687;56.232;43.854;2023-12-29T09:22:24;8.57;;;4.63;;
73452;SDS011;61687;56.232;43.854;2023-12-29T09:24:50;9.45;;;4.72;;
73452;SDS011;61687;56.232;43.854;2023-12-29T09:27:16;9.40;;;5.20;;
73452;SDS011;61687;56.232;43.854;2023-12-29T09:29:42;10.40;;;4.88;;
73452;SDS011;61687;56.232;43.854;2023-12-29T09:32:10;10.43;;;5.23;;
73452;SDS011;61687;56.232;43.854;2023-12-29T09:34:36;11.55;;;5.65;;
73452;SDS011;61687;56.232;43.854;2023-12-29T09:37:03;8.10;;;4.72;;
73452;SDS011;61687;56.232;43.854;2023-12-29T09:39:30;7.47;;;4.40;;
73452;SDS011;61687;56.232;43.854;2023-12-29T09:41:57;7.20;;;4.78;;
73452;SDS011;61687;56.232;43.854;2023-12-29T09:44:26;11.63;;;4.57;;
73452;SDS011;61687;56.232;43.854;2023-12-29T09:46:57;7.20;;;4.28;;
73452;SDS011;61687;56.232;43.854;2023-12-29T09:49:27;7.50;;;4.65;;
73452;SDS011;61687;56.232;43.854;2023-12-29T09:52:05;7.07;;;4.07;;
73452;SDS011;61687;56.232;43.854;2023-12-29T09:54:36;7.38;;;4.47;;
73452;SDS011;61687;56.232;43.854;2023-12-29T09:57:06;6.37;;;3.77;;
73452;SDS011;61687;56.232;43.854;2023-12-29T09:59:36;7.97;;;3.95;;
73452;SDS011;61687;56.232;43.854;2023-12-29T10:02:11;7.63;;;4.22;;
73452;SDS011;61687;56.232;43.854;2023-12-29T10:04:40;6.47;;;3.97;;
73452;SDS011;61687;56.232;43.854;2023-12-29T10:07:06;8.00;;;3.95;;
73452;SDS011;61687;56.232;43.854;2023-12-29T10:09:35;6.50;;;3.60;;
73452;SDS011;61687;56.232;43.854;2023-12-29T10:12:04;6.50;;;3.58;;
73452;SDS011;61687;56.232;43.854;2023-12-29T10:15:17;8.82;;;4.65;;
73452;SDS011;61687;56.232;43.854;2023-12-29T10:17:36;7.05;;;3.92;;
73452;SDS011;61687;56.232;43.854;2023-12-29T10:20:08;7.35;;;3.95;;
73452;SDS011;61687;56.232;43.854;2023-12-29T10:25:34;8.73;;;4.57;;
73452;SDS011;61687;56.232;43.854;2023-12-29T10:28:01;6.93;;;4.47;;
73452;SDS011;61687;56.232;43.854;2023-12-29T10:30:28;8.48;;;4.97;;
73452;SDS011;61687;56.232;43.854;2023-12-29T10:32:55;10.75;;;5.13;;
73452;SDS011;61687;56.232;43.854;2023-12-29T10:35:21;8.40;;;4.80;;
73452;SDS011;61687;56.232;43.854;2023-12-29T10:37:47;10.65;;;5.07;;
73452;SDS011;61687;56.232;43.854;2023-12-29T10:40:17;7.70;;;4.57;;
73452;SDS011;61687;56.232;43.854;2023-12-29T10:42:54;8.32;;;5.28;;
73452;SDS011;61687;56.232;43.854;2023-12-29T10:45:20;10.83;;;4.43;;
73452;SDS011;61687;56.232;43.854;2023-12-29T10:47:50;9.90;;;4.82;;
73452;SDS011;61687;56.232;43.854;2023-12-29T10:50:17;12.05;;;6.10;;
73452;SDS011;61687;56.232;43.854;2023-12-29T10:52:43;10.73;;;5.35;;
73452;SDS011;61687;56.232;43.854;2023-12-29T10:55:09;11.05;;;5.78;;
73452;SDS011;61687;56.232;43.854;2023-12-29T10:57:37;8.60;;;5.00;;
73452;SDS011;61687;56.232;43.854;2023-12-29T11:00:04;10.75;;;5.47;;
73452;SDS011;61687;56.232;43.854;2023-12-29T11:02:34;10.20;;;5.47;;
73452;SDS011;61687;56.232;43.854;2023-12-29T11:05:09;8.55;;;4.63;;
73452;SDS011;61687;56.232;43.854;2023-12-29T11:07:40;9.45;;;5.18;;
73452;SDS011;61687;56.232;43.854;2023-12-29T11:10:07;10.10;;;5.80;;
73452;SDS011;61687;56.232;43.854;2023-12-29T11:12:34;12.30;;;4.90;;
73452;SDS011;61687;56.232;43.854;2023-12-29T11:15:02;11.27;;;5.47;;
73452;SDS011;61687;56.232;43.854;2023-12-29T11:17:33;10.88;;;5.75;;
73452;SDS011;61687;56.232;43.854;2023-12-29T11:20:01;10.23;;;5.07;;
73452;SDS011;61687;56.232;43.854;2023-12-29T11:22:31;12.20;;;5.70;;
73452;SDS011;61687;56.232;43.854;2023-12-29T11:24:58;8.40;;;4.90;;
73452;SDS011;61687;56.232;43.854;2023-12-29T11:27:31;11.90;;;5.38;;
73452;SDS011;61687;56.232;43.854;2023-12-29T11:29:58;11.32;;;5.78;;
73452;SDS011;61687;56.232;43.854;2023-12-29T11:32:27;10.10;;;5.63;;
73452;SDS011;61687;56.232;43.854;2023-12-29T11:35:45;8.65;;;4.93;;
73452;SDS011;61687;56.232;43.854;2023-12-29T11:38:23;10.55;;;4.78;;
73452;SDS011;61687;56.232;43.854;2023-12-29T11:41:05;8.30;;;4.45;;
73452;SDS011;61687;56.232;43.854;2023-12-29T11:43:38;10.18;;;5.45;;
73452;SDS011;61687;56.232;43.854;2023-12-29T11:46:04;9.75;;;5.43;;
73452;SDS011;61687;56.232;43.854;2023-12-29T11:51:27;9.88;;;5.07;;
73452;SDS011;61687;56.232;43.854;2023-12-29T11:53:59;11.23;;;5.80;;
73452;SDS011;61687;56.232;43.854;2023-12-29T11:56:39;9.45;;;5.53;;
73452;SDS011;61687;56.232;43.854;2023-12-29T12:01:49;9.17;;;4.70;;
73452;SDS011;61687;56.232;43.854;2023-12-29T12:04:41;7.93;;;4.57;;
73452;SDS011;61687;56.232;43.854;2023-12-29T12:09:50;9.52;;;4.70;;
73452;SDS011;61687;56.232;43.854;2023-12-29T12:17:52;9.20;;;5.63;;
73452;SDS011;61687;56.232;43.854;2023-12-29T12:20:18;9.82;;;5.65;;
73452;SDS011;61687;56.232;43.854;2023-12-29T12:22:44;12.00;;;5.40;;
73452;SDS011;61687;56.232;43.854;2023-12-29T12:25:15;14.07;;;5.50;;
73452;SDS011;61687;56.232;43.854;2023-12-29T12:27:41;12.37;;;5.97;;
73452;SDS011;61687;56.232;43.854;2023-12-29T12:30:08;12.65;;;5.50;;
73452;SDS011;61687;56.232;43.854;2023-12-29T12:32:35;10.93;;;5.90;;
73452;SDS011;61687;56.232;43.854;2023-12-29T12:35:01;9.80;;;5.15;;
73452;SDS011;61687;56.232;43.854;2023-12-29T12:37:29;11.10;;;5.70;;
73452;SDS011;61687;56.232;43.854;2023-12-29T12:39:55;8.60;;;5.10;;
73452;SDS011;61687;56.232;43.854;2023-12-29T12:42:22;9.65;;;5.15;;
73452;SDS011;61687;56.232;43.854;2023-12-29T12:47:55;8.50;;;5.15;;
73452;SDS011;61687;56.232;43.854;2023-12-29T12:50:27;9.93;;;4.60;;
73452;SDS011;61687;56.232;43.854;2023-12-29T12:52:55;11.27;;;5.87;;
73452;SDS011;61687;56.232;43.854;2023-12-29T12:55:23;11.07;;;5.15;;
73452;SDS011;61687;56.232;43.854;2023-12-29T12:57:49;13.30;;;5.55;;
73452;SDS011;61687;56.232;43.854;2023-12-29T13:00:15;13.95;;;6.78;;
73452;SDS011;61687;56.232;43.854;2023-12-29T13:02:44;13.38;;;7.10;;
73452;SDS011;61687;56.232;43.854;2023-12-29T13:05:12;19.80;;;8.77;;
73452;SDS011;61687;56.232;43.854;2023-12-29T13:07:38;17.33;;;7.97;;
73452;SDS011;61687;56.232;43.854;2023-12-29T13:10:05;18.98;;;7.60;;
73452;SDS011;61687;56.232;43.854;2023-12-29T13:12:31;16.10;;;7.30;;
73452;SDS011;61687;56.232;43.854;2023-12-29T13:15:06;16.80;;;7.43;;
73452;SDS011;61687;56.232;43.854;2023-12-29T13:17:36;18.13;;;8.75;;
73452;SDS011;61687;56.232;43.854;2023-12-29T13:20:02;16.50;;;8.25;;
73452;SDS011;61687;56.232;43.854;2023-12-29T13:22:30;16.65;;;8.00;;
73452;SDS011;61687;56.232;43.854;2023-12-29T13:24:57;16.90;;;8.15;;
73452;SDS011;61687;56.232;43.854;2023-12-29T13:27:23;17.33;;;7.07;;
73452;SDS011;61687;56.232;43.854;2023-12-29T13:29:49;15.77;;;7.32;;
73452;SDS011;61687;56.232;43.854;2023-12-29T13:32:17;15.90;;;7.35;;
73452;SDS011;61687;56.232;43.854;2023-12-29T13:37:35;17.13;;;7.70;;
73452;SDS011;61687;56.232;43.854;2023-12-29T13:42:48;14.38;;;7.43;;
73452;SDS011;61687;56.232;43.854;2023-12-29T13:45:19;16.58;;;7.60;;
73452;SDS011;61687;56.232;43.854;2023-12-29T13:47:46;16.35;;;7.63;;
73452;SDS011;61687;56.232;43.854;2023-12-29T13:50:12;19.17;;;7.97;;
73452;SDS011;61687;56.232;43.854;2023-12-29T13:52:38;23.87;;;9.87;;
73452;SDS011;61687;56.232;43.854;2023-12-29T13:55:05;72.03;;;23.77;;
73452;SDS011;61687;56.232;43.854;2023-12-29T13:57:32;55.20;;;17.92;;
73452;SDS011;61687;56.232;43.854;2023-12-29T14:03:05;27.42;;;10.80;;
73452;SDS011;61687;56.232;43.854;2023-12-29T14:05:36;20.90;;;9.20;;
73452;SDS011;61687;56.232;43.854;2023-12-29T14:08:23;19.10;;;8.98;;
73452;SDS011;61687;56.232;43.854;2023-12-29T14:10:52;18.42;;;9.07;;
73452;SDS011;61687;56.232;43.854;2023-12-29T14:13:21;19.67;;;9.10;;
73452;SDS011;61687;56.232;43.854;2023-12-29T14:15:47;22.02;;;9.25;;
73452;SDS011;61687;56.232;43.854;2023-12-29T14:20:58;20.33;;;9.38;;
73452;SDS011;61687;56.232;43.854;2023-12-29T14:23:25;20.75;;;9.50;;
73452;SDS011;61687;56.232;43.854;2023-12-29T14:25:51;22.92;;;10.32;;
73452;SDS011;61687;56.232;43.854;2023-12-29T14:28:17;24.23;;;11.30;;
73452;SDS011;61687;56.232;43.854;2023-12-29T14:30:46;24.83;;;11.67;;
73452;SDS011;61687;56.232;43.854;2023-12-29T14:33:12;24.45;;;11.82;;
73452;SDS011;61687;56.232;43.854;2023-12-29T14:35:38;22.92;;;10.40;;
73452;SDS011;61687;56.232;43.854;2023-12-29T14:38:04;21.77;;;10.97;;
73452;SDS011;61687;56.232;43.854;2023-12-29T14:40:30;23.27;;;10.80;;
73452;SDS011;61687;56.232;43.854;2023-12-29T14:43:00;20.60;;;10.73;;
73452;SDS011;61687;56.232;43.854;2023-12-29T14:45:27;24.58;;;11.00;;
73452;SDS011;61687;56.232;43.854;2023-12-29T14:47:57;21.25;;;10.10;;
73452;SDS011;61687;56.232;43.854;2023-12-29T14:50:24;21.30;;;10.10;;
73452;SDS011;61687;56.232;43.854;2023-12-29T14:52:50;23.80;;;11.93;;
73452;SDS011;61687;56.232;43.854;2023-12-29T14:55:16;29.90;;;12.98;;
73452;SDS011;61687;56.232;43.854;2023-12-29T14:57:41;27.05;;;12.70;;
73452;SDS011;61687;56.232;43.854;2023-12-29T15:00:10;25.50;;;12.10;;
73452;SDS011;61687;56.232;43.854;2023-12-29T15:02:36;24.35;;;11.52;;